• Join FlightAware (Why Join?)
  • Login
  • US Flag 
05:12AM EDT


 

Airport Tracker/Info


-or-


 

Live Flight TrackerFlight Track Log ✈ DAL2069 ✈ 26-May-2013 ✈ KMCO - KATL

Flight Track Log - Related Links

Times and Time Zones

All times are in EDT time to prevent confusion due to time zone crossing. See the DAL2069 flight status page for this flight to view local times or setup timezone preferences in your user account.

Time Position Orientation Groundspeed Altitude Reporting Facility
EDT Latitude Longitude Course Direction KTS MPH feet Rate Location/Type
12:36PM 28.4333 -81.3000 350° North 167 192 500  Level Orlando TRACON
12:37PM 28.4500 -81.3000 360° North 174 200 1,600 2,580 Climbing Orlando TRACON
12:38PM 28.5000 -81.2667 30° Northeast 246 283 3,900 3,000 Climbing Orlando TRACON
12:39PM 28.7327 -81.3404 353° North  Level FlightAware Approximate
12:39PM 28.6258 -81.2725 358° North 279 321 9,700  Level Jacksonville Center
12:40PM 28.8391 -81.3512 350° North  Level FlightAware Approximate
12:40PM 28.7017 -81.3233 330° Northwest 298 343 11,500  Level Jacksonville Center
12:41PM 28.9448 -81.3667 North  Level FlightAware Approximate
12:41PM 28.7942 -81.3811 331° Northwest 329 379 14,200  Level Jacksonville Center
12:42PM 29.0510 -81.3769 350° North  Level FlightAware Approximate
12:42PM 28.8889 -81.4414 331° Northwest 369 425 17,100  Level Jacksonville Center
12:43PM 28.9939 -81.4944 336° Northwest 389 448 19,400 2,400 Climbing Jacksonville Center
12:44PM 29.1069 -81.5283 345° North 403 464 21,900 2,220 Climbing Jacksonville Center
12:45PM 29.2222 -81.5697 343° North 416 479 23,900 2,040 Climbing Jacksonville Center
12:46PM 29.3436 -81.6061 345° North 436 502 26,000 1,920 Climbing Jacksonville Center
12:47PM 29.4631 -81.6475 343° North 442 509 27,800 1,680 Climbing Jacksonville Center
12:48PM 29.5864 -81.6864 345° North 448 516 29,400 1,980 Climbing Jacksonville Center
12:49PM 29.7081 -81.7256 344° North 448 516 31,800 1,980 Climbing Jacksonville Center
12:50PM 29.8253 -81.7650 344° North 448 516 33,400 1,560 Climbing Jacksonville Center
12:51PM 29.9444 -81.8042 344° North 443 510 35,000 780 Climbing Jacksonville Center
12:52PM 30.0511 -81.8319 347° North 430 495 35,000  Level Jacksonville Center
12:53PM 30.1642 -81.8714 343° North 430 495 35,000  Level Jacksonville Center
12:54PM 30.2817 -81.9161 342° North 430 495 35,000  Level Jacksonville Center
12:55PM 30.3967 -81.9581 343° North 435 501 35,000  Level Jacksonville Center
12:56PM 30.5119 -82.0053 341° North 440 506 35,000  Level Jacksonville Center
12:57PM 30.6314 -82.0572 339° North 445 512 35,000  Level Jacksonville Center
12:58PM 30.7442 -82.1022 341° North 445 512 35,000  Level Jacksonville Center
12:59PM 30.8594 -82.1472 341° North 445 512 35,000  Level Jacksonville Center
01:00PM 30.9767 -82.1947 341° North 445 512 35,000  Level Jacksonville Center
01:01PM 31.0894 -82.2375 342° North 440 506 35,000  Level Jacksonville Center
01:02PM 31.2047 -82.2878 340° North 440 506 35,000  Level Jacksonville Center
01:03PM 31.3217 -82.3333 342° North 434 499 35,000  Level Jacksonville Center
01:04PM 31.4367 -82.3714 344° North 429 494 35,000  Level Jacksonville Center
01:05PM 31.5519 -82.4197 340° North 429 494 35,000  Level Jacksonville Center
01:07PM 31.7347 -82.4931 341° North 428 493 35,000  Level Atlanta Center
01:08PM 31.8461 -82.5403 340° North 428 493 35,000 -540 Level Atlanta Center
01:09PM 31.9533 -82.6117 331° Northwest 428 493 34,000 -1,260 Descending Atlanta Center
01:10PM 32.0461 -82.7008 321° Northwest 435 501 32,500 -1,320 Descending Atlanta Center
01:11PM 32.1431 -82.7903 322° Northwest 435 501 31,400 -780 Descending Atlanta Center
01:12PM 32.2378 -82.8772 322° Northwest 435 501 31,000 -300 Descending Atlanta Center
01:13PM 32.3325 -82.9669 321° Northwest 435 501 30,900 -900 Descending Atlanta Center
01:14PM 32.4294 -83.0569 322° Northwest 435 501 29,300 -2,460 Descending Atlanta Center
01:15PM 32.5261 -83.1494 321° Northwest 441 507 26,000 -2,520 Descending Atlanta Center
01:16PM 32.6269 -83.2422 322° Northwest 454 522 24,300 -1,800 Descending Atlanta Center
01:17PM 32.7194 -83.3328 321° Northwest 448 516 22,400 -1,860 Descending Atlanta Center
01:18PM 32.8117 -83.4208 321° Northwest 436 502 20,600 -1,920 Descending Atlanta Center
01:19PM 32.9019 -83.5094 321° Northwest 425 489 18,600 -2,160 Descending Atlanta Center
01:20PM 32.9878 -83.5931 321° Northwest 413 475 16,300 -2,400 Descending Atlanta Center
01:21PM 33.0694 -83.6694 322° Northwest 396 456 13,800 -1,920 Descending Atlanta Center
01:22PM 33.1500 -83.7500 320° Northwest 346 398 12,400 -900 Descending Atlanta TRACON
01:23PM 33.2167 -83.8167 320° Northwest 291 335 12,000 -780 Descending Atlanta TRACON
01:24PM 33.2639 -83.8822 311° West 293 337 10,900 -1,380 Descending Atlanta Center
01:25PM 33.3286 -83.9344 326° Northwest 263 303 9,400 -1,440 Descending Atlanta Center
01:26PM 33.4058 -83.9367 359° North 251 289 8,100 -720 Descending Atlanta Center
01:27PM 33.4833 -83.9492 352° North 269 310 8,000 -420 Descending Atlanta Center
01:28PM 33.5564 -83.9592 353° North 275 316 7,300 -540 Descending Atlanta Center
01:29PM 33.6147 -84.0139 322° Northwest 257 296 7,000 -780 Descending Atlanta Center
01:31PM 33.6333 -84.1500 279° West 224 258 5,100 -1,020 Descending Atlanta TRACON